createdAt,value
2022-10-28T00:01:48.297Z,101213.13
2022-10-28T00:04:51.501Z,101215.41
2022-10-28T00:07:55.038Z,101221.31
2022-10-28T00:11:11.109Z,101214.94
2022-10-28T00:14:15.196Z,101202.75
2022-10-28T00:17:18.386Z,101215.34
2022-10-28T00:20:21.211Z,101215.88
2022-10-28T00:23:24.250Z,101212.47
2022-10-28T00:26:29.601Z,101215.00
2022-10-28T00:29:32.783Z,101213.25
2022-10-28T00:32:35.527Z,101209.34
2022-10-28T00:35:38.568Z,101208.88
2022-10-28T00:38:42.588Z,101203.66
2022-10-28T00:41:48.691Z,101203.22
2022-10-28T00:44:58.477Z,101210.47
2022-10-28T00:48:03.219Z,101213.84
2022-10-28T00:51:06.368Z,101201.88
2022-10-28T00:54:10.634Z,101201.50
2022-10-28T00:57:17.702Z,101200.13
2022-10-28T01:00:21.776Z,101191.31
2022-10-28T01:03:24.571Z,101202.75
2022-10-28T01:06:29.338Z,101203.66
2022-10-28T01:09:32.102Z,101198.16
2022-10-28T01:13:03.760Z,101201.19
2022-10-28T01:16:24.532Z,101200.19
2022-10-28T01:19:49.469Z,101196.81
2022-10-28T01:23:20.223Z,101195.78
2022-10-28T01:26:42.186Z,101205.66
2022-10-28T01:30:24.548Z,101200.69
2022-10-28T01:33:55.133Z,101195.69
2022-10-28T01:37:11.012Z,101204.38
2022-10-28T01:40:20.836Z,101204.94
2022-10-28T01:43:34.845Z,101201.97
2022-10-28T01:46:41.760Z,101193.81
2022-10-28T01:50:42.005Z,101196.69
2022-10-28T01:53:47.924Z,101199.56
2022-10-28T01:56:51.332Z,101194.84
2022-10-28T01:59:55.382Z,101194.50
2022-10-28T02:02:58.972Z,101194.59
2022-10-28T02:06:04.870Z,101197.31
2022-10-28T02:09:20.912Z,101199.41
2022-10-28T02:12:29.937Z,101200.03
2022-10-28T02:15:39.281Z,101193.25
2022-10-28T02:18:54.714Z,101188.03
2022-10-28T02:22:12.813Z,101192.25
2022-10-28T02:25:33.019Z,101179.75
2022-10-28T02:28:40.108Z,101188.97
2022-10-28T02:31:56.083Z,101184.22
2022-10-28T02:35:00.989Z,101185.47
2022-10-28T02:38:06.086Z,101183.09
2022-10-28T02:41:17.718Z,101185.91
2022-10-28T02:44:28.773Z,101181.50
2022-10-28T02:47:34.613Z,101178.12
2022-10-28T02:50:40.793Z,101176.06
2022-10-28T02:53:56.979Z,101178.78
2022-10-28T02:57:07.965Z,101180.03
2022-10-28T03:00:17.064Z,101176.78
2022-10-28T03:03:20.099Z,101181.75
2022-10-28T03:06:22.877Z,101175.78
2022-10-28T03:09:25.947Z,101176.66
2022-10-28T03:12:28.701Z,101183.56
2022-10-28T03:15:31.733Z,101173.50
2022-10-28T03:18:34.722Z,101176.66
2022-10-28T03:21:38.980Z,101171.91
2022-10-28T03:24:41.915Z,101171.72
2022-10-28T03:27:46.522Z,101172.06
2022-10-28T03:30:49.302Z,101161.53
2022-10-28T03:33:52.371Z,101157.69
2022-10-28T03:36:55.133Z,101158.13
2022-10-28T03:39:59.297Z,101164.50
2022-10-28T03:43:02.303Z,101160.78
2022-10-28T03:46:05.497Z,101155.47
2022-10-28T03:49:08.265Z,101158.59
2022-10-28T03:52:11.407Z,101162.56
2022-10-28T03:55:14.237Z,101154.41
2022-10-28T03:58:17.576Z,101157.03
2022-10-28T04:01:21.789Z,101152.94
2022-10-28T04:04:28.409Z,101157.59
2022-10-28T04:07:33.727Z,101155.00
2022-10-28T04:10:38.162Z,101150.62
2022-10-28T04:13:41.154Z,101158.56
2022-10-28T04:16:45.337Z,101153.31
2022-10-28T04:19:48.157Z,101157.75
2022-10-28T04:22:54.612Z,101158.50
2022-10-28T04:25:59.769Z,101146.75
2022-10-28T04:29:02.858Z,101142.22
2022-10-28T04:32:05.641Z,101134.94
2022-10-28T04:35:09.413Z,101136.44
2022-10-28T04:38:14.180Z,101139.59
2022-10-28T04:41:17.653Z,101145.47
2022-10-28T04:44:20.391Z,101139.00
2022-10-28T04:47:23.451Z,101141.81
2022-10-28T04:50:26.697Z,101143.84
2022-10-28T04:53:29.781Z,101135.44
2022-10-28T04:56:33.469Z,101139.28
2022-10-28T04:59:37.630Z,101143.94
2022-10-28T05:02:45.150Z,101134.22
2022-10-28T05:05:49.309Z,101128.87
2022-10-28T05:08:52.066Z,101125.69
2022-10-28T05:11:55.758Z,101129.66
2022-10-28T05:14:59.180Z,101144.03
2022-10-28T05:18:02.245Z,101153.09
2022-10-28T05:21:05.157Z,101151.84
2022-10-28T05:24:08.564Z,101152.00
2022-10-28T05:27:12.643Z,101155.06
2022-10-28T05:30:15.860Z,101165.13
2022-10-28T05:33:18.588Z,101152.44
2022-10-28T05:36:21.621Z,101159.69
2022-10-28T05:39:24.382Z,101158.47
2022-10-28T05:42:27.470Z,101161.53
2022-10-28T05:45:31.082Z,101158.47
2022-10-28T05:48:34.309Z,101157.75
2022-10-28T05:51:37.697Z,101166.03
2022-10-28T05:54:40.819Z,101169.19
2022-10-28T05:57:43.611Z,101168.16
2022-10-28T06:00:46.609Z,101163.19
2022-10-28T06:03:49.697Z,101169.50
2022-10-28T06:06:55.274Z,101157.59
2022-10-28T06:09:58.264Z,101161.50
2022-10-28T06:12:59.370Z,101152.09
2022-10-28T06:16:02.939Z,101155.13
2022-10-28T06:19:05.659Z,101153.06
2022-10-28T06:22:08.650Z,101153.50
2022-10-28T06:25:11.918Z,101158.06
2022-10-28T06:28:15.369Z,101167.09
2022-10-28T06:31:18.465Z,101164.38
2022-10-28T06:34:21.603Z,101159.37
2022-10-28T06:37:24.752Z,101157.81
2022-10-28T06:40:27.927Z,101165.03
2022-10-28T06:43:30.692Z,101161.63
2022-10-28T06:46:35.728Z,101163.47
2022-10-28T06:49:38.705Z,101169.37
2022-10-28T06:52:41.753Z,101181.56
2022-10-28T06:55:48.950Z,101170.31
2022-10-28T06:58:53.383Z,101178.22
2022-10-28T07:01:56.533Z,101191.94
2022-10-28T07:04:59.614Z,101188.69
2022-10-28T07:08:02.387Z,101188.94
2022-10-28T07:11:06.519Z,101192.87
2022-10-28T07:14:12.021Z,101191.12
2022-10-28T07:17:15.338Z,101200.44
2022-10-28T07:20:19.372Z,101191.59
2022-10-28T07:23:22.996Z,101187.19
2022-10-28T07:26:30.515Z,101171.47
2022-10-28T07:29:33.668Z,101173.38
2022-10-28T07:32:37.183Z,101173.38
2022-10-28T07:35:40.378Z,101174.62
2022-10-28T07:38:43.322Z,101175.06
2022-10-28T07:41:46.944Z,101177.59
2022-10-28T07:44:49.755Z,101176.25
2022-10-28T07:47:53.440Z,101175.59
2022-10-28T07:50:56.184Z,101179.31
2022-10-28T07:53:59.658Z,101176.37
2022-10-28T07:57:02.529Z,101175.19
2022-10-28T08:00:07.070Z,101180.88
2022-10-28T08:03:12.964Z,101185.03
2022-10-28T08:06:20.639Z,101183.91
2022-10-28T08:09:23.408Z,101195.38
2022-10-28T08:12:28.369Z,101203.19
2022-10-28T08:15:31.075Z,101199.25
2022-10-28T08:18:36.472Z,101201.19
2022-10-28T08:21:40.437Z,101199.91
2022-10-28T08:24:43.423Z,101205.38
2022-10-28T08:27:46.171Z,101202.56
2022-10-28T08:31:04.210Z,101201.59
2022-10-28T08:34:10.676Z,101205.41
2022-10-28T08:37:16.321Z,101199.06
2022-10-28T08:40:27.246Z,101199.78
2022-10-28T08:43:57.229Z,101197.31
2022-10-28T08:47:04.391Z,101196.16
2022-10-28T08:50:16.364Z,101189.31
2022-10-28T08:53:39.461Z,101192.00
2022-10-28T08:56:48.730Z,101195.03
2022-10-28T08:59:54.404Z,101198.63
2022-10-28T09:03:13.284Z,101198.94
2022-10-28T09:06:16.061Z,101204.78
2022-10-28T09:09:21.847Z,101209.97
2022-10-28T09:12:43.421Z,101208.28
2022-10-28T09:16:03.666Z,101192.94
2022-10-28T09:19:19.758Z,101189.44
2022-10-28T09:22:25.755Z,101191.94
2022-10-28T09:25:49.650Z,101199.03
2022-10-28T09:29:02.987Z,101192.03
2022-10-28T09:32:19.675Z,101192.31
2022-10-28T09:35:25.452Z,101198.16
2022-10-28T09:38:36.388Z,101200.94
2022-10-28T09:41:40.534Z,101194.69
2022-10-28T09:44:50.132Z,101194.53
2022-10-28T09:47:59.218Z,101195.47
2022-10-28T09:51:02.304Z,101183.09
2022-10-28T09:54:05.647Z,101188.69
2022-10-28T09:57:11.481Z,101189.47
2022-10-28T10:00:17.971Z,101200.16
2022-10-28T10:03:21.119Z,101196.06
2022-10-28T10:06:31.844Z,101197.97
2022-10-28T10:09:36.194Z,101192.53
2022-10-28T10:12:39.573Z,101190.03
2022-10-28T10:15:52.630Z,101198.41
2022-10-28T10:18:58.085Z,101193.31
2022-10-28T10:22:01.095Z,101188.81
2022-10-28T10:25:06.542Z,101175.13
2022-10-28T10:28:16.048Z,101179.59
2022-10-28T10:31:27.478Z,101176.09
2022-10-28T10:34:31.075Z,101178.56
2022-10-28T10:37:35.746Z,101187.97
2022-10-28T10:40:47.587Z,101180.84
2022-10-28T10:43:50.293Z,101180.62
2022-10-28T10:46:53.230Z,101176.81
2022-10-28T10:50:24.215Z,101183.63
2022-10-28T10:53:31.895Z,101178.94
2022-10-28T10:56:34.663Z,101181.59
2022-10-28T10:59:38.084Z,101185.31
2022-10-28T11:02:41.088Z,101175.66
2022-10-28T11:06:05.342Z,101177.13
2022-10-28T11:09:36.510Z,101173.72
2022-10-28T11:12:51.639Z,101171.47
2022-10-28T11:16:02.527Z,101163.63
2022-10-28T11:19:20.023Z,101152.09
2022-10-28T11:22:41.448Z,101160.50
2022-10-28T11:25:50.895Z,101161.16
2022-10-28T11:29:12.539Z,101159.47
2022-10-28T11:32:54.443Z,101151.31
2022-10-28T11:36:33.257Z,101149.88
2022-10-28T11:40:01.454Z,101140.84
2022-10-28T11:43:25.284Z,101138.53
2022-10-28T11:46:46.783Z,101141.00
2022-10-28T11:50:04.665Z,101136.94
2022-10-28T11:53:30.563Z,101145.25
2022-10-28T11:56:39.121Z,101138.00
2022-10-28T11:59:53.151Z,101139.13
2022-10-28T12:03:18.835Z,101131.56
2022-10-28T12:06:28.011Z,101148.25
2022-10-28T12:09:55.350Z,101135.25
2022-10-28T12:13:26.601Z,101125.37
2022-10-28T12:16:38.920Z,101121.91
2022-10-28T12:19:58.838Z,101119.88
2022-10-28T12:23:04.273Z,101125.53
2022-10-28T12:26:10.974Z,101121.28
2022-10-28T12:29:19.541Z,101111.91
2022-10-28T12:32:34.428Z,101107.22
2022-10-28T12:35:40.790Z,101101.19
2022-10-28T12:39:04.732Z,101104.81
2022-10-28T12:42:31.388Z,101108.16
2022-10-28T12:45:34.455Z,101101.13
2022-10-28T12:48:56.390Z,101099.13
2022-10-28T12:52:05.809Z,101103.25
2022-10-28T12:55:16.851Z,101094.16
2022-10-28T12:58:51.021Z,101089.88
2022-10-28T13:01:54.195Z,101092.59
2022-10-28T13:04:58.343Z,101086.97
2022-10-28T13:08:27.235Z,101088.53
2022-10-28T13:12:08.559Z,101102.16
2022-10-28T13:15:36.759Z,101093.50
2022-10-28T13:18:44.042Z,101086.75
2022-10-28T13:22:05.529Z,101084.09
2022-10-28T13:25:47.305Z,101074.44
2022-10-28T13:28:52.624Z,101076.16
2022-10-28T13:31:56.326Z,101084.75
2022-10-28T13:34:59.897Z,101074.88
2022-10-28T13:38:10.696Z,101081.94
2022-10-28T13:41:36.439Z,101095.78
2022-10-28T13:44:54.409Z,101101.19
2022-10-28T13:48:46.539Z,101103.91
2022-10-28T13:51:51.112Z,101102.34
2022-10-28T13:54:56.685Z,101099.22
2022-10-28T13:58:06.803Z,101093.44
2022-10-28T14:01:37.785Z,101083.19
2022-10-28T14:04:41.785Z,101102.34
2022-10-28T14:08:06.326Z,101096.06
2022-10-28T14:11:13.316Z,101104.91
2022-10-28T14:14:16.979Z,101097.47
2022-10-28T14:17:22.689Z,101095.44
2022-10-28T14:20:42.394Z,101098.13
2022-10-28T14:23:45.474Z,101096.09
2022-10-28T14:27:06.879Z,101087.47
2022-10-28T14:30:19.093Z,101092.78
2022-10-28T14:33:22.224Z,101094.66
2022-10-28T14:37:01.294Z,101101.78
2022-10-28T14:40:29.178Z,101101.50
2022-10-28T14:43:38.376Z,101101.06
2022-10-28T14:46:56.251Z,101097.41
2022-10-28T14:50:02.194Z,101088.59
2022-10-28T14:53:08.371Z,101093.81
2022-10-28T14:56:24.636Z,101087.81
2022-10-28T14:59:29.656Z,101079.19
2022-10-28T15:02:34.101Z,101077.31
2022-10-28T15:05:37.339Z,101068.78
2022-10-28T15:08:40.341Z,101073.06
2022-10-28T15:11:46.224Z,101072.56
2022-10-28T15:14:52.335Z,101070.00
2022-10-28T15:17:55.505Z,101074.94
2022-10-28T15:21:10.168Z,101077.41
2022-10-28T15:24:13.924Z,101076.63
2022-10-28T15:27:17.383Z,101069.56
2022-10-28T15:30:25.182Z,101065.47
2022-10-28T15:33:32.991Z,101059.72
2022-10-28T15:36:36.017Z,101062.31
2022-10-28T15:39:39.838Z,101066.34
2022-10-28T15:42:45.899Z,101062.50
2022-10-28T15:45:49.367Z,101067.31
2022-10-28T15:48:53.531Z,101065.41
2022-10-28T15:52:20.844Z,101064.25
2022-10-28T15:55:35.942Z,101077.53
2022-10-28T15:58:59.546Z,101067.84
2022-10-28T16:02:02.505Z,101067.72
2022-10-28T16:05:07.831Z,101063.94
2022-10-28T16:08:17.806Z,101059.28
2022-10-28T16:11:21.216Z,101067.31
2022-10-28T16:14:44.204Z,101069.75
2022-10-28T16:17:47.282Z,101070.31
2022-10-28T16:20:50.125Z,101069.53
2022-10-28T16:23:59.096Z,101075.75
2022-10-28T16:27:18.600Z,101072.31
2022-10-28T16:33:32.318Z,101067.41
2022-10-28T16:36:35.473Z,101079.19
2022-10-28T16:39:38.243Z,101076.03
2022-10-28T16:42:41.602Z,101079.00
2022-10-28T16:45:44.486Z,101083.75
2022-10-28T16:48:47.724Z,101089.69
2022-10-28T16:51:50.782Z,101080.75
2022-10-28T16:54:54.023Z,101079.91
2022-10-28T16:57:57.451Z,101083.41
2022-10-28T17:01:01.420Z,101081.19
2022-10-28T17:04:05.657Z,101079.34
2022-10-28T17:07:08.794Z,101089.16
2022-10-28T17:10:13.419Z,101083.66
2022-10-28T17:13:16.977Z,101091.13
2022-10-28T17:16:20.339Z,101085.06
2022-10-28T17:19:24.908Z,101086.28
2022-10-28T17:22:29.274Z,101084.00
2022-10-28T17:25:32.598Z,101097.47
2022-10-28T17:28:36.316Z,101089.19
2022-10-28T17:31:40.036Z,101098.34
2022-10-28T17:34:44.218Z,101098.25
2022-10-28T17:37:48.295Z,101096.69
2022-10-28T17:40:55.940Z,101085.44
2022-10-28T17:43:59.167Z,101080.28
2022-10-28T17:47:02.451Z,101090.44
2022-10-28T17:50:07.325Z,101081.50
2022-10-28T17:53:11.749Z,101082.09
2022-10-28T17:56:15.054Z,101082.22
2022-10-28T17:59:19.400Z,101085.63
2022-10-28T18:02:23.229Z,101096.53
2022-10-28T18:05:28.085Z,101091.56
2022-10-28T18:08:37.472Z,101088.06
2022-10-28T18:11:41.911Z,101087.91
2022-10-28T18:14:45.002Z,101080.69
2022-10-28T18:17:50.484Z,101076.78
2022-10-28T18:20:55.776Z,101074.06
2022-10-28T18:24:04.349Z,101071.94
2022-10-28T18:27:07.828Z,101076.81
2022-10-28T18:30:12.785Z,101068.13
2022-10-28T18:33:16.067Z,101066.75
2022-10-28T18:36:23.923Z,101066.12
2022-10-28T18:39:27.178Z,101068.59
2022-10-28T18:42:32.012Z,101063.31
2022-10-28T18:45:36.223Z,101062.16
2022-10-28T18:48:39.998Z,101067.53
2022-10-28T18:51:43.398Z,101063.69
2022-10-28T18:54:47.386Z,101059.09
2022-10-28T18:57:57.255Z,101059.44
2022-10-28T19:01:21.610Z,101058.91
2022-10-28T19:04:24.601Z,101068.69
2022-10-28T19:07:27.787Z,101065.16
2022-10-28T19:10:31.019Z,101069.38
2022-10-28T19:13:36.326Z,101074.03
2022-10-28T19:16:40.681Z,101073.50
2022-10-28T19:19:44.008Z,101080.25
2022-10-28T19:22:48.158Z,101070.41
2022-10-28T19:25:56.388Z,101072.97
2022-10-28T19:29:00.196Z,101078.06
2022-10-28T19:32:05.069Z,101072.50
2022-10-28T19:35:09.335Z,101078.16
2022-10-28T19:38:14.000Z,101068.06
2022-10-28T19:41:18.400Z,101074.19
2022-10-28T19:44:21.878Z,101067.78
2022-10-28T19:47:24.939Z,101071.94
2022-10-28T19:50:28.414Z,101082.88
2022-10-28T19:53:32.462Z,101082.81
2022-10-28T19:56:35.835Z,101072.34
2022-10-28T19:59:39.116Z,101064.19
2022-10-28T20:02:42.452Z,101065.53
2022-10-28T20:05:45.996Z,101067.72
2022-10-28T20:08:49.642Z,101060.84
2022-10-28T20:11:53.002Z,101073.50
2022-10-28T20:14:56.042Z,101077.63
2022-10-28T20:17:59.213Z,101086.91
2022-10-28T20:21:11.886Z,101076.66
2022-10-28T20:24:16.116Z,101077.87
2022-10-28T20:27:19.114Z,101081.84
2022-10-28T20:30:22.132Z,101079.47
2022-10-28T20:33:27.241Z,101080.87
2022-10-28T20:36:30.233Z,101083.66
2022-10-28T20:39:33.574Z,101086.47
2022-10-28T20:42:37.016Z,101080.16
2022-10-28T20:45:39.808Z,101079.53
2022-10-28T20:48:42.954Z,101084.56
2022-10-28T20:51:45.868Z,101094.41
2022-10-28T20:54:48.906Z,101092.28
2022-10-28T20:57:51.946Z,101093.06
2022-10-28T21:00:55.108Z,101090.91
2022-10-28T21:04:00.697Z,101092.91
2022-10-28T21:07:03.720Z,101095.09
2022-10-28T21:10:07.048Z,101086.75
2022-10-28T21:13:10.126Z,101073.09
2022-10-28T21:16:14.659Z,101076.75
2022-10-28T21:19:17.646Z,101076.12
2022-10-28T21:22:21.608Z,101066.75
2022-10-28T21:25:34.467Z,101074.31
2022-10-28T21:28:37.595Z,101069.03
2022-10-28T21:31:40.631Z,101068.09
2022-10-28T21:34:43.982Z,101071.84
2022-10-28T21:37:47.144Z,101066.22
2022-10-28T21:40:50.311Z,101060.06
2022-10-28T21:43:54.645Z,101054.72
2022-10-28T21:46:57.622Z,101055.00
2022-10-28T21:50:00.887Z,101051.19
2022-10-28T21:53:04.270Z,101052.44
2022-10-28T21:56:16.701Z,101051.91
2022-10-28T21:59:20.665Z,101060.06
2022-10-28T22:02:23.840Z,101056.84
2022-10-28T22:05:26.899Z,101045.88
2022-10-28T22:08:30.012Z,101056.12
2022-10-28T22:11:33.069Z,101063.31
2022-10-28T22:14:36.000Z,101055.41
2022-10-28T22:17:39.849Z,101051.56
2022-10-28T22:20:42.669Z,101055.72
2022-10-28T22:23:45.808Z,101045.69
2022-10-28T22:26:48.830Z,101046.97
2022-10-28T22:29:51.843Z,101047.34
2022-10-28T22:32:54.913Z,101042.59
2022-10-28T22:36:03.459Z,101040.69
2022-10-28T22:39:06.610Z,101032.19
2022-10-28T22:42:09.661Z,101038.06
2022-10-28T22:45:12.384Z,101022.94
2022-10-28T22:48:15.495Z,101035.12
2022-10-28T22:51:18.851Z,101034.78
2022-10-28T22:54:22.160Z,101033.06
2022-10-28T22:57:24.883Z,101029.56
2022-10-28T23:00:27.924Z,101019.44
2022-10-28T23:03:38.648Z,101016.37
2022-10-28T23:06:41.914Z,101023.31
2022-10-28T23:09:44.610Z,101030.41
2022-10-28T23:12:47.768Z,101031.56
2022-10-28T23:15:50.501Z,101033.22
2022-10-28T23:18:53.888Z,101014.38
2022-10-28T23:21:56.618Z,101019.59
2022-10-28T23:24:59.754Z,101022.25
2022-10-28T23:28:05.249Z,101019.09
2022-10-28T23:31:10.107Z,101031.91
2022-10-28T23:34:12.812Z,101022.50
2022-10-28T23:37:15.838Z,101030.34
2022-10-28T23:40:18.531Z,101031.03
2022-10-28T23:43:21.625Z,101038.69
2022-10-28T23:46:25.190Z,101050.50
2022-10-28T23:49:28.215Z,101050.94
2022-10-28T23:52:31.042Z,101038.75
2022-10-28T23:55:34.863Z,101042.41
2022-10-28T23:58:37.587Z,101045.12
